createdAt,value
2023-05-16T00:00:43.911Z,15.69
2023-05-16T00:03:12.437Z,16.02
2023-05-16T00:05:39.612Z,15.98
2023-05-16T00:08:06.674Z,16.13
2023-05-16T00:10:33.752Z,15.55
2023-05-16T00:13:02.254Z,15.85
2023-05-16T00:15:30.249Z,13.76
2023-05-16T00:18:00.431Z,15.71
2023-05-16T00:20:28.885Z,16.01
2023-05-16T00:22:56.414Z,15.81
2023-05-16T00:25:23.435Z,15.95
2023-05-16T00:27:50.590Z,15.90
2023-05-16T00:30:17.701Z,15.89
2023-05-16T00:32:44.848Z,15.51
2023-05-16T00:35:12.708Z,15.44
2023-05-16T00:37:39.825Z,16.10
2023-05-16T00:40:07.713Z,15.67
2023-05-16T00:42:36.176Z,16.11
2023-05-16T00:45:05.009Z,15.02
2023-05-16T00:47:32.613Z,15.93
2023-05-16T00:49:59.674Z,16.30
2023-05-16T00:52:26.808Z,16.10
2023-05-16T00:54:54.193Z,16.19
2023-05-16T00:57:21.552Z,15.92
2023-05-16T00:59:48.914Z,16.31
2023-05-16T01:02:17.705Z,16.14
2023-05-16T01:04:48.408Z,15.70
2023-05-16T01:07:15.609Z,16.03
2023-05-16T01:09:42.711Z,15.52
2023-05-16T01:12:16.347Z,15.42
2023-05-16T01:14:49.299Z,16.32
2023-05-16T01:17:33.911Z,15.81
2023-05-16T01:20:05.221Z,15.73
2023-05-16T01:22:51.610Z,16.26
2023-05-16T01:25:48.324Z,16.35
2023-05-16T01:28:17.722Z,16.03
2023-05-16T01:30:45.213Z,15.82
2023-05-16T01:33:12.570Z,15.86
2023-05-16T01:35:59.827Z,15.91
2023-05-16T01:38:33.372Z,15.59
2023-05-16T01:41:13.260Z,15.24
2023-05-16T01:43:46.662Z,16.29
2023-05-16T01:46:16.826Z,15.27
2023-05-16T01:48:47.936Z,15.91
2023-05-16T01:51:15.092Z,15.21
2023-05-16T01:53:45.472Z,16.22
2023-05-16T01:56:16.847Z,16.02
2023-05-16T01:58:44.980Z,15.97
2023-05-16T02:01:13.824Z,16.22
2023-05-16T02:03:40.798Z,16.26
2023-05-16T02:06:08.152Z,16.07
2023-05-16T02:08:35.329Z,16.19
2023-05-16T02:11:02.332Z,15.84
2023-05-16T02:13:29.372Z,16.19
2023-05-16T02:15:56.431Z,15.99
2023-05-16T02:18:23.855Z,16.05
2023-05-16T02:20:51.132Z,15.85
2023-05-16T02:23:18.354Z,15.40
2023-05-16T02:25:45.250Z,15.77
2023-05-16T02:28:12.248Z,16.09
2023-05-16T02:30:39.398Z,15.70
2023-05-16T02:33:06.497Z,16.17
2023-05-16T02:35:33.740Z,16.08
2023-05-16T02:38:00.794Z,15.25
2023-05-16T02:40:28.359Z,15.76
2023-05-16T02:42:56.575Z,15.78
2023-05-16T02:45:23.887Z,15.93
2023-05-16T02:47:51.013Z,16.04
2023-05-16T02:50:18.986Z,15.79
2023-05-16T02:52:46.210Z,15.83
2023-05-16T02:57:43.536Z,15.95
2023-05-16T03:00:13.078Z,15.98
2023-05-16T03:02:40.226Z,15.37
2023-05-16T03:05:08.803Z,15.72
2023-05-16T03:07:36.418Z,15.39
2023-05-16T03:10:06.290Z,15.94
2023-05-16T03:12:33.242Z,15.84
2023-05-16T03:15:00.185Z,15.59
2023-05-16T03:17:27.371Z,15.81
2023-05-16T03:19:54.506Z,15.18
2023-05-16T03:22:21.554Z,14.51
2023-05-16T03:24:48.850Z,14.18
2023-05-16T03:27:16.234Z,15.66
2023-05-16T03:29:43.239Z,15.06
2023-05-16T03:32:11.957Z,15.68
2023-05-16T03:34:38.969Z,15.72
2023-05-16T03:37:06.739Z,15.70
2023-05-16T03:39:34.024Z,15.11
2023-05-16T03:42:01.120Z,15.23
2023-05-16T03:44:28.153Z,15.44
2023-05-16T03:46:56.278Z,13.19
2023-05-16T03:49:28.594Z,14.46
2023-05-16T03:51:55.941Z,13.02
2023-05-16T03:54:23.094Z,15.52
2023-05-16T03:56:50.150Z,15.47
2023-05-16T03:59:17.145Z,15.33
2023-05-16T04:01:44.437Z,15.42
2023-05-16T04:04:11.334Z,15.47
2023-05-16T04:06:38.261Z,14.80
2023-05-16T04:09:06.648Z,15.77
2023-05-16T04:11:34.379Z,15.78
2023-05-16T04:14:01.927Z,15.64
2023-05-16T04:16:29.401Z,15.61
2023-05-16T04:18:56.932Z,15.50
2023-05-16T04:21:24.033Z,15.71
2023-05-16T04:23:51.198Z,15.70
2023-05-16T04:26:18.321Z,15.23
2023-05-16T04:28:45.306Z,15.28
2023-05-16T04:31:14.478Z,15.52
2023-05-16T04:33:41.669Z,15.73
2023-05-16T04:36:12.605Z,15.63
2023-05-16T04:38:39.675Z,15.55
2023-05-16T04:41:06.761Z,15.32
2023-05-16T04:43:33.877Z,15.28
2023-05-16T04:46:01.433Z,15.61
2023-05-16T04:48:28.480Z,15.81
2023-05-16T04:50:55.736Z,15.70
2023-05-16T04:53:22.785Z,15.21
2023-05-16T04:55:49.746Z,15.67
2023-05-16T04:58:16.881Z,15.64
2023-05-16T05:00:43.964Z,15.09
2023-05-16T05:03:11.143Z,14.40
2023-05-16T05:05:38.264Z,15.76
2023-05-16T05:08:05.546Z,15.76
2023-05-16T05:10:32.510Z,15.89
2023-05-16T05:12:59.621Z,15.10
2023-05-16T05:15:26.868Z,14.72
2023-05-16T05:17:54.376Z,15.69
2023-05-16T05:20:21.842Z,16.04
2023-05-16T05:22:49.028Z,16.09
2023-05-16T05:25:16.103Z,14.33
2023-05-16T05:27:43.177Z,15.66
2023-05-16T05:30:10.639Z,16.17
2023-05-16T05:32:37.949Z,16.20
2023-05-16T05:35:05.537Z,16.36
2023-05-16T05:37:32.738Z,16.38
2023-05-16T05:39:59.916Z,16.39
2023-05-16T05:42:26.907Z,16.42
2023-05-16T05:44:54.052Z,16.43
2023-05-16T05:47:21.848Z,16.13
2023-05-16T05:49:49.224Z,16.37
2023-05-16T05:52:16.496Z,16.15
2023-05-16T05:54:43.610Z,16.58
2023-05-16T05:57:10.692Z,15.26
2023-05-16T05:59:37.713Z,14.96
2023-05-16T06:02:05.093Z,15.73
2023-05-16T06:04:32.069Z,16.56
2023-05-16T06:06:59.434Z,16.63
2023-05-16T06:09:26.600Z,15.85
2023-05-16T06:11:53.592Z,15.30
2023-05-16T06:14:20.667Z,16.47
2023-05-16T06:16:47.749Z,15.80
2023-05-16T06:19:16.649Z,16.08
2023-05-16T06:21:44.181Z,16.42
2023-05-16T06:24:12.553Z,16.06
2023-05-16T06:26:39.771Z,15.95
2023-05-16T06:29:06.801Z,17.10
2023-05-16T06:31:33.830Z,17.21
2023-05-16T06:34:01.042Z,17.24
2023-05-16T06:36:28.083Z,17.23
2023-05-16T06:38:55.139Z,17.39
2023-05-16T06:41:22.439Z,17.13
2023-05-16T06:43:49.707Z,16.27
2023-05-16T06:46:16.947Z,16.88
2023-05-16T06:48:44.078Z,17.76
2023-05-16T06:51:11.223Z,16.07
2023-05-16T06:53:38.410Z,16.25
2023-05-16T06:56:05.988Z,16.51
2023-05-16T06:58:33.318Z,16.13
2023-05-16T07:01:00.640Z,17.38
2023-05-16T07:03:29.275Z,17.25
2023-05-16T07:05:57.411Z,16.67
2023-05-16T07:08:25.931Z,18.01
2023-05-16T07:10:52.964Z,17.51
2023-05-16T07:13:20.198Z,16.82
2023-05-16T07:15:47.250Z,18.20
2023-05-16T07:18:14.513Z,17.36
2023-05-16T07:20:42.007Z,18.26
2023-05-16T07:23:09.048Z,18.15
2023-05-16T07:25:36.966Z,18.31
2023-05-16T07:28:04.452Z,18.41
2023-05-16T07:30:31.752Z,18.14
2023-05-16T07:32:59.394Z,18.62
2023-05-16T07:35:26.782Z,18.42
2023-05-16T07:37:54.321Z,18.64
2023-05-16T07:40:26.014Z,17.64
2023-05-16T07:42:53.082Z,18.13
2023-05-16T07:45:20.209Z,18.99
2023-05-16T07:47:47.419Z,18.42
2023-05-16T07:50:14.787Z,19.15
2023-05-16T07:52:41.844Z,18.70
2023-05-16T07:55:09.534Z,19.00
2023-05-16T07:57:36.943Z,19.04
2023-05-16T08:00:04.492Z,19.34
2023-05-16T08:02:38.975Z,19.67
2023-05-16T08:05:06.811Z,18.34
2023-05-16T08:07:34.001Z,19.45
2023-05-16T08:10:01.209Z,19.85
2023-05-16T08:12:28.408Z,18.97
2023-05-16T08:14:55.633Z,19.94
2023-05-16T08:17:23.069Z,20.04
2023-05-16T08:19:50.305Z,19.42
2023-05-16T08:22:17.410Z,20.19
2023-05-16T08:24:44.596Z,19.65
2023-05-16T08:27:12.360Z,19.99
2023-05-16T08:29:39.539Z,20.46
2023-05-16T08:32:06.927Z,20.50
2023-05-16T08:34:34.201Z,20.35
2023-05-16T08:37:01.498Z,20.09
2023-05-16T08:39:30.767Z,20.19
2023-05-16T08:41:59.047Z,20.10
2023-05-16T08:44:26.767Z,20.02
2023-05-16T08:46:54.543Z,19.79
2023-05-16T08:49:21.684Z,20.55
2023-05-16T08:51:51.796Z,20.33
2023-05-16T08:54:18.973Z,20.11
2023-05-16T08:56:46.727Z,20.26
2023-05-16T08:59:14.155Z,19.84
2023-05-16T09:01:41.915Z,20.16
2023-05-16T09:04:10.506Z,19.98
2023-05-16T09:06:38.069Z,20.27
2023-05-16T09:09:08.254Z,20.24
2023-05-16T09:11:37.143Z,19.96
2023-05-16T09:14:05.873Z,20.52
2023-05-16T09:16:33.163Z,20.18
2023-05-16T09:19:02.186Z,20.17
2023-05-16T09:21:32.159Z,19.60
2023-05-16T09:24:09.516Z,20.09
2023-05-16T09:26:38.730Z,20.30
2023-05-16T09:29:14.686Z,20.07
2023-05-16T09:31:41.962Z,20.51
2023-05-16T09:34:15.806Z,20.43
2023-05-16T09:36:44.100Z,20.57
2023-05-16T09:39:12.412Z,19.92
2023-05-16T09:41:39.450Z,20.09
2023-05-16T09:44:07.127Z,20.19
2023-05-16T09:46:35.164Z,20.13
2023-05-16T09:49:03.261Z,20.19
2023-05-16T09:51:30.331Z,20.47
2023-05-16T09:53:59.271Z,20.37
2023-05-16T09:56:26.241Z,20.00
2023-05-16T09:58:53.503Z,20.43
2023-05-16T10:01:21.089Z,20.23
2023-05-16T10:03:48.628Z,20.27
2023-05-16T10:06:16.837Z,19.92
2023-05-16T10:08:44.616Z,20.65
2023-05-16T10:11:12.364Z,20.69
2023-05-16T10:13:39.928Z,20.76
2023-05-16T10:16:11.959Z,20.86
2023-05-16T10:18:40.648Z,21.11
2023-05-16T10:21:14.800Z,19.49
2023-05-16T10:23:43.752Z,19.86
2023-05-16T10:26:14.368Z,20.04
2023-05-16T10:28:42.698Z,19.96
2023-05-16T10:31:11.586Z,21.26
2023-05-16T10:33:39.871Z,20.93
2023-05-16T10:36:09.621Z,20.81
2023-05-16T10:38:38.843Z,21.27
2023-05-16T10:41:07.746Z,20.78
2023-05-16T10:43:34.932Z,20.71
2023-05-16T10:46:07.928Z,20.59
2023-05-16T10:48:40.043Z,21.08
2023-05-16T10:51:34.846Z,21.22
2023-05-16T10:54:15.004Z,20.86
2023-05-16T10:56:43.546Z,21.19
2023-05-16T10:59:24.500Z,20.95
2023-05-16T11:01:56.619Z,21.00
2023-05-16T11:04:24.193Z,20.11
2023-05-16T11:06:53.227Z,21.43
2023-05-16T11:09:27.857Z,20.95
2023-05-16T11:11:59.410Z,21.64
2023-05-16T11:14:32.678Z,21.53
2023-05-16T11:17:16.545Z,21.66
2023-05-16T11:19:47.521Z,21.34
2023-05-16T11:22:35.169Z,21.74
2023-05-16T11:25:03.478Z,21.80
2023-05-16T11:27:42.106Z,21.75
2023-05-16T11:30:15.619Z,21.71
2023-05-16T11:32:45.472Z,22.04
2023-05-16T11:35:15.612Z,22.21
2023-05-16T11:37:44.342Z,22.45
2023-05-16T11:40:13.854Z,21.86
2023-05-16T11:42:46.439Z,22.30
2023-05-16T11:45:25.816Z,21.82
2023-05-16T11:47:53.244Z,22.45
2023-05-16T11:50:26.600Z,22.27
2023-05-16T11:52:56.445Z,22.25
2023-05-16T11:55:40.467Z,22.35
2023-05-16T11:58:10.470Z,22.36
2023-05-16T12:00:37.677Z,21.98
2023-05-16T12:03:06.187Z,22.46
2023-05-16T12:05:35.291Z,21.90
2023-05-16T12:08:05.816Z,21.00
2023-05-16T12:10:34.958Z,20.82
2023-05-16T12:13:03.881Z,21.91
2023-05-16T12:15:31.493Z,22.12
2023-05-16T12:17:59.593Z,21.19
2023-05-16T12:20:27.057Z,21.63
2023-05-16T12:22:58.145Z,21.32
2023-05-16T12:25:29.832Z,20.36
2023-05-16T12:28:02.159Z,21.48
2023-05-16T12:30:31.736Z,21.32
2023-05-16T12:33:07.987Z,20.84
2023-05-16T12:35:38.139Z,21.19
2023-05-16T12:38:07.058Z,21.38
2023-05-16T12:40:34.513Z,21.01
2023-05-16T12:43:01.652Z,20.83
2023-05-16T12:45:29.357Z,21.52
2023-05-16T12:47:56.599Z,21.31
2023-05-16T12:50:26.848Z,21.23
2023-05-16T12:52:59.292Z,21.54
2023-05-16T12:55:29.915Z,21.33
2023-05-16T12:57:58.317Z,21.23
2023-05-16T13:00:25.679Z,21.66
2023-05-16T13:02:53.198Z,21.69
2023-05-16T13:05:22.450Z,21.62
2023-05-16T13:07:51.701Z,21.71
2023-05-16T13:10:19.381Z,21.49
2023-05-16T13:12:47.458Z,21.20
2023-05-16T13:15:15.356Z,21.83
2023-05-16T13:17:47.749Z,21.66
2023-05-16T13:20:16.299Z,21.00
2023-05-16T13:22:44.055Z,21.86
2023-05-16T13:25:11.868Z,21.96
2023-05-16T13:27:40.489Z,22.02
2023-05-16T13:30:08.156Z,21.64
2023-05-16T13:32:35.435Z,21.85
2023-05-16T13:35:04.311Z,21.67
2023-05-16T13:37:31.970Z,22.03
2023-05-16T13:39:59.279Z,21.16
2023-05-16T13:42:26.488Z,21.51
2023-05-16T13:44:53.597Z,21.43
2023-05-16T13:47:21.066Z,21.31
2023-05-16T13:49:49.175Z,21.16
2023-05-16T13:52:16.589Z,20.16
2023-05-16T13:54:43.635Z,20.98
2023-05-16T13:57:10.847Z,20.81
2023-05-16T14:00:05.664Z,20.65
2023-05-16T14:02:26.519Z,20.42
2023-05-16T14:04:54.369Z,20.38
2023-05-16T14:07:21.427Z,20.42
2023-05-16T14:09:48.467Z,20.17
2023-05-16T14:12:15.693Z,20.07
2023-05-16T14:14:42.793Z,19.67
2023-05-16T14:17:09.946Z,19.61
2023-05-16T14:19:37.414Z,19.74
2023-05-16T14:22:04.546Z,19.82
2023-05-16T14:24:31.593Z,19.61
2023-05-16T14:26:58.605Z,19.63
2023-05-16T14:29:25.937Z,19.25
2023-05-16T14:31:54.401Z,19.05
2023-05-16T14:34:22.548Z,18.77
2023-05-16T14:36:51.019Z,19.10
2023-05-16T14:39:18.128Z,18.78
2023-05-16T14:41:45.223Z,18.90
2023-05-16T14:44:12.840Z,18.56
2023-05-16T14:46:40.232Z,18.81
2023-05-16T14:49:07.667Z,18.57
2023-05-16T14:51:34.682Z,18.90
2023-05-16T14:54:01.824Z,18.55
2023-05-16T14:56:28.929Z,18.90
2023-05-16T14:58:56.291Z,18.67
2023-05-16T15:01:23.395Z,18.81
2023-05-16T15:03:55.529Z,18.49
2023-05-16T15:06:24.703Z,18.74
2023-05-16T15:08:52.080Z,18.10
2023-05-16T15:11:19.615Z,18.81
2023-05-16T15:13:46.876Z,18.53
2023-05-16T15:16:14.233Z,18.70
2023-05-16T15:18:41.974Z,18.63
2023-05-16T15:21:09.496Z,18.47
2023-05-16T15:23:36.838Z,18.44
2023-05-16T15:26:04.724Z,18.63
2023-05-16T15:28:31.895Z,18.48
2023-05-16T15:30:58.913Z,18.29
2023-05-16T15:33:27.653Z,18.58
2023-05-16T15:35:54.723Z,18.53
2023-05-16T15:38:21.976Z,18.18
2023-05-16T15:40:55.053Z,18.23
2023-05-16T15:43:28.615Z,18.17
2023-05-16T15:45:55.771Z,17.81
2023-05-16T15:48:22.932Z,17.76
2023-05-16T15:50:50.006Z,17.61
2023-05-16T15:53:17.075Z,18.16
2023-05-16T15:55:44.188Z,18.00
2023-05-16T15:58:11.236Z,17.70
2023-05-16T16:00:39.468Z,18.36
2023-05-16T16:03:07.108Z,18.25
2023-05-16T16:05:34.330Z,18.34
2023-05-16T16:08:01.449Z,16.86
2023-05-16T16:10:28.561Z,16.62
2023-05-16T16:13:05.236Z,18.07
2023-05-16T16:15:33.673Z,17.70
2023-05-16T16:18:01.565Z,17.19
2023-05-16T16:20:28.875Z,17.53
2023-05-16T16:22:56.337Z,17.40
2023-05-16T16:25:23.568Z,17.48
2023-05-16T16:27:51.368Z,17.57
2023-05-16T16:30:18.734Z,17.38
2023-05-16T16:32:48.840Z,16.64
2023-05-16T16:35:16.306Z,16.88
2023-05-16T16:37:51.632Z,17.19
2023-05-16T16:40:30.795Z,17.51
2023-05-16T16:42:58.048Z,17.27
2023-05-16T16:45:25.549Z,17.13
2023-05-16T16:47:53.412Z,17.57
2023-05-16T16:50:20.636Z,17.50
2023-05-16T16:52:47.950Z,17.35
2023-05-16T16:55:15.168Z,17.06
2023-05-16T16:57:42.735Z,17.35
2023-05-16T17:00:14.369Z,17.30
2023-05-16T17:02:41.794Z,17.20
2023-05-16T17:05:10.431Z,16.86
2023-05-16T17:07:37.654Z,16.81
2023-05-16T17:10:05.276Z,17.07
2023-05-16T17:12:34.539Z,16.35
2023-05-16T17:15:02.426Z,17.01
2023-05-16T17:17:29.612Z,16.18
2023-05-16T17:19:56.932Z,16.66
2023-05-16T17:22:23.971Z,16.95
2023-05-16T17:24:50.996Z,16.56
2023-05-16T17:27:18.157Z,16.92
2023-05-16T17:29:45.210Z,16.71
2023-05-16T17:32:12.358Z,16.91
2023-05-16T17:34:39.301Z,16.88
2023-05-16T17:37:11.569Z,16.40
2023-05-16T17:39:38.878Z,16.65
2023-05-16T17:42:06.206Z,16.77
2023-05-16T17:44:33.259Z,16.48
2023-05-16T17:47:00.435Z,15.77
2023-05-16T17:49:27.608Z,15.74
2023-05-16T17:51:56.854Z,16.06
2023-05-16T17:54:24.346Z,15.99
2023-05-16T17:56:51.475Z,15.64
2023-05-16T17:59:19.177Z,15.53
2023-05-16T18:01:46.754Z,16.02
2023-05-16T18:04:14.603Z,15.81
2023-05-16T18:06:42.099Z,15.91
2023-05-16T18:09:10.522Z,15.32
2023-05-16T18:11:40.731Z,15.34
2023-05-16T18:14:12.965Z,15.36
2023-05-16T18:16:40.164Z,15.22
2023-05-16T18:19:08.850Z,14.95
2023-05-16T18:21:37.625Z,15.74
2023-05-16T18:24:05.423Z,15.72
2023-05-16T18:26:32.475Z,15.81
2023-05-16T18:28:59.586Z,15.84
2023-05-16T18:31:26.871Z,15.35
2023-05-16T18:33:54.006Z,15.52
2023-05-16T18:36:21.161Z,15.31
2023-05-16T18:38:48.218Z,15.54
2023-05-16T18:41:17.844Z,15.92
2023-05-16T18:43:44.752Z,15.80
2023-05-16T18:46:11.859Z,15.84
2023-05-16T18:48:38.852Z,15.75
2023-05-16T18:51:06.400Z,15.49
2023-05-16T18:53:33.502Z,15.43
2023-05-16T18:56:00.657Z,15.13
2023-05-16T18:58:27.823Z,15.38
2023-05-16T19:00:54.795Z,15.26
2023-05-16T19:03:22.049Z,15.86
2023-05-16T19:05:49.581Z,15.48
2023-05-16T19:08:16.770Z,15.56
2023-05-16T19:10:43.906Z,15.39
2023-05-16T19:13:10.940Z,15.65
2023-05-16T19:15:38.628Z,15.14
2023-05-16T19:18:06.701Z,15.30
2023-05-16T19:20:34.967Z,15.35
2023-05-16T19:23:03.443Z,15.98
2023-05-16T19:25:30.774Z,15.66
2023-05-16T19:27:57.802Z,15.89
2023-05-16T19:30:25.397Z,15.47
2023-05-16T19:32:52.735Z,15.55
2023-05-16T19:35:19.944Z,15.55
2023-05-16T19:37:47.114Z,14.94
2023-05-16T19:40:16.983Z,15.46
2023-05-16T19:42:44.388Z,14.99
2023-05-16T19:45:11.775Z,15.00
2023-05-16T19:47:39.004Z,15.28
2023-05-16T19:50:07.196Z,15.12
2023-05-16T19:52:34.919Z,14.44
2023-05-16T19:55:02.920Z,15.14
2023-05-16T19:57:30.275Z,14.93
2023-05-16T19:59:57.483Z,14.52
2023-05-16T20:02:24.849Z,14.70
2023-05-16T20:04:52.115Z,14.71
2023-05-16T20:07:19.337Z,14.71
2023-05-16T20:09:46.397Z,14.76
2023-05-16T20:12:13.608Z,14.49
2023-05-16T20:14:40.755Z,14.67
2023-05-16T20:17:07.846Z,14.58
2023-05-16T20:19:36.645Z,14.45
2023-05-16T20:22:03.877Z,14.51
2023-05-16T20:24:30.914Z,14.48
2023-05-16T20:27:01.984Z,14.06
2023-05-16T20:29:31.331Z,14.30
2023-05-16T20:31:58.365Z,13.69
2023-05-16T20:34:26.332Z,14.08
2023-05-16T20:36:53.470Z,14.13
2023-05-16T20:39:20.674Z,13.10
2023-05-16T20:41:47.839Z,14.17
2023-05-16T20:44:15.876Z,13.89
2023-05-16T20:46:43.451Z,14.14
2023-05-16T20:49:10.896Z,14.48
2023-05-16T20:51:38.659Z,14.34
2023-05-16T20:54:05.820Z,14.30
2023-05-16T20:56:33.151Z,14.28
2023-05-16T20:59:00.553Z,14.51
2023-05-16T21:01:27.664Z,14.53
2023-05-16T21:03:54.632Z,14.69
2023-05-16T21:06:21.695Z,14.29
2023-05-16T21:08:48.750Z,14.81
2023-05-16T21:11:16.056Z,14.31
2023-05-16T21:13:43.161Z,14.55
2023-05-16T21:16:10.272Z,14.81
2023-05-16T21:18:37.718Z,13.35
2023-05-16T21:21:04.932Z,14.63
2023-05-16T21:23:32.027Z,13.99
2023-05-16T21:25:58.982Z,14.32
2023-05-16T21:28:31.148Z,14.57
2023-05-16T21:30:59.944Z,14.57
2023-05-16T21:33:26.992Z,14.23
2023-05-16T21:35:55.357Z,14.22
2023-05-16T21:38:22.497Z,14.14
2023-05-16T21:40:49.639Z,14.36
2023-05-16T21:43:17.157Z,14.44
2023-05-16T21:45:44.238Z,14.06
2023-05-16T21:48:11.404Z,14.27
2023-05-16T21:50:38.595Z,14.78
2023-05-16T21:53:05.585Z,14.81
2023-05-16T21:55:32.580Z,14.55
2023-05-16T21:57:59.562Z,14.40
2023-05-16T22:00:26.633Z,14.63
2023-05-16T22:02:53.874Z,14.67
2023-05-16T22:05:21.207Z,13.70
2023-05-16T22:07:48.375Z,13.22
2023-05-16T22:10:16.984Z,14.57
2023-05-16T22:12:47.585Z,13.17
2023-05-16T22:15:14.536Z,14.62
2023-05-16T22:17:42.051Z,14.37
2023-05-16T22:20:09.776Z,13.81
2023-05-16T22:22:37.411Z,14.70
2023-05-16T22:25:05.416Z,14.73
2023-05-16T22:27:32.469Z,13.50
2023-05-16T22:29:59.635Z,14.09
2023-05-16T22:32:28.243Z,14.65
2023-05-16T22:34:58.325Z,14.57
2023-05-16T22:37:25.529Z,14.67
2023-05-16T22:39:53.508Z,14.46
2023-05-16T22:42:20.504Z,14.02
2023-05-16T22:44:48.082Z,14.67
2023-05-16T22:47:15.287Z,14.40
2023-05-16T22:49:42.385Z,14.69
2023-05-16T22:52:09.468Z,14.43
2023-05-16T22:54:36.594Z,13.70
2023-05-16T22:57:07.052Z,13.08
2023-05-16T22:59:34.386Z,14.58
2023-05-16T23:02:01.607Z,14.04
2023-05-16T23:04:28.709Z,14.51
2023-05-16T23:06:55.796Z,14.08
2023-05-16T23:09:23.401Z,13.92
2023-05-16T23:11:50.766Z,14.14
2023-05-16T23:14:17.852Z,13.82
2023-05-16T23:16:44.910Z,13.88
2023-05-16T23:19:12.233Z,12.97
2023-05-16T23:21:40.250Z,13.12
2023-05-16T23:24:07.372Z,14.05
2023-05-16T23:26:34.535Z,14.32
2023-05-16T23:29:04.592Z,14.32
2023-05-16T23:31:34.492Z,13.91
2023-05-16T23:34:01.985Z,13.70
2023-05-16T23:36:29.347Z,14.24
2023-05-16T23:38:56.523Z,13.79
2023-05-16T23:41:23.854Z,13.65
2023-05-16T23:43:51.010Z,13.32
2023-05-16T23:46:18.139Z,14.15
2023-05-16T23:48:45.330Z,13.73
2023-05-16T23:51:12.359Z,13.37
2023-05-16T23:53:39.400Z,13.57
2023-05-16T23:56:06.541Z,13.64
2023-05-16T23:58:33.904Z,12.79
